Delta Virtual Airport Information Service

Savannah Hilton Head International Airport

ICAO: KSAV Country: United States
Latitude: 32.1276 Longitude: -81.2021
Latest Arrival : DAL2781 (1A) (KATL-KSAV) Latest Departure : DAL1730 (KSAV-KATL)


WX CaptureLIVE
Data provided by noaa.gov | Fetched at 01:08:51

METAR : KSAV 120553Z AUTO 20005KT 2SM VCTS +RA BR SCT010 BKN021 OVC037 21/21 A3007 RMK AO2 LTG DSNT N AND E TSE07B28E46 SLP182 P0037 60037 T02110211 10244 20211 50006

TAF : KSAV 120532Z 1206/1306 VRB10KT 2SM -TSRA BR FEW050CB BKN060 OVC080 TEMPO 1206/1210 3SM SHRA SCT015 BKN025 FM121400 31004KT 3SM -SHRA BR OVC015 FM122000 01008G14KT 3SM SHRA BKN008 OVC010 FM130000 03010KT 6SM -DZ OVC008


Runway Data for KSAV
Data provided by openaviationdata.com

Runway ID Mag Var Hdg Length Elevation Surface ILS Freq ILS Id ILS Slope
9 -6 96° 9341 ft 50 ft Concrete 109.9 ISAV 3
18 -6 185° 7017 ft 50 ft Asphalt -- -- --
27 -6 276° 9341 ft 50 ft Concrete -- -- --
36 -6 7017 ft 50 ft Asphalt 111.9 ITPV 3

Savannah Hilton Head International Airport, United States
Use only for reference purposes



Not for navigational purposes.